Time;durP1;ratioP1;P1;durP2;ratioP2;P2;SDS_P1;SDS_P2;PMS_P1;PMS_P2;Temp;Humidity;BMP_temperature;BMP_pressure;BME280_temperature;BME280_humidity;BME280_pressure;Samples;Min_cycle;Max_cycle;Signal;HPM_P1;HPM_P2
2022/01/22 00:00:19;;;;;;;11.63;4.33;;;;;;;18.96;49.51;102030.25;5028689;28;20898;-60
2022/01/22 00:02:45;;;;;;;12.70;4.67;;;;;;;18.92;49.99;102028.44;5042534;28;20206;-60
2022/01/22 00:05:11;;;;;;;9.77;4.33;;;;;;;18.99;49.99;102020.13;5046095;28;20517;-59
2022/01/22 00:07:36;;;;;;;9.57;4.10;;;;;;;19.11;49.49;102020.28;5034046;28;20439;-59
2022/01/22 00:10:07;;;;;;;8.50;3.97;;;;;;;19.13;49.69;102017.91;5056576;28;20191;-59
2022/01/22 00:15:02;;;;;;;13.60;4.17;;;;;;;19.25;49.74;102016.03;5032975;28;20430;-60
2022/01/22 00:17:27;;;;;;;8.83;4.40;;;;;;;19.32;49.47;102002.00;5062064;28;20914;-59
2022/01/22 00:19:53;;;;;;;8.57;4.10;;;;;;;19.36;49.43;102005.84;5053463;28;20427;-59
2022/01/22 00:22:23;;;;;;;9.47;4.20;;;;;;;19.37;49.46;102007.53;5036097;28;20203;-59
2022/01/22 00:24:53;;;;;;;9.60;4.53;;;;;;;19.35;49.40;102012.78;5044971;28;20171;-60
2022/01/22 00:27:19;;;;;;;7.57;3.80;;;;;;;19.34;49.93;102007.38;5049402;28;20399;-59
2022/01/22 00:29:44;;;;;;;8.80;4.03;;;;;;;19.32;49.88;102015.50;5045378;28;20826;-59
2022/01/22 00:32:10;;;;;;;10.20;4.47;;;;;;;19.32;49.85;102013.44;5034050;28;20180;-60
2022/01/22 00:34:37;;;;;;;12.17;3.53;;;;;;;19.27;50.33;102013.63;5043646;28;20629;-60
2022/01/22 00:37:03;;;;;;;12.00;3.80;;;;;;;19.34;50.09;102013.97;5056698;28;20298;-60
2022/01/22 00:39:29;;;;;;;9.10;3.83;;;;;;;19.10;51.05;102016.56;5053699;28;20491;-60
2022/01/22 00:41:57;;;;;;;6.93;3.63;;;;;;;19.08;50.46;102016.06;5029400;28;20286;-59
2022/01/22 00:44:22;;;;;;;11.73;3.97;;;;;;;19.07;50.43;102017.22;5036142;28;20438;-59
2022/01/22 00:46:48;;;;;;;10.33;4.40;;;;;;;19.03;50.62;102022.00;5044447;28;20801;-60
2022/01/22 00:49:13;;;;;;;8.07;3.33;;;;;;;19.06;50.99;102009.00;5051041;28;20588;-58
2022/01/22 00:51:39;;;;;;;7.17;2.87;;;;;;;19.17;50.57;102008.25;5049378;28;20183;-59
2022/01/22 00:54:04;;;;;;;8.10;3.20;;;;;;;19.34;50.42;102005.38;5045359;28;20191;-59
2022/01/22 00:56:30;;;;;;;10.23;4.20;;;;;;;19.19;50.53;102005.06;5036088;28;20191;-60
2022/01/22 00:58:55;;;;;;;8.63;4.27;;;;;;;19.05;50.22;102008.16;5040505;28;20226;-60
2022/01/22 01:01:21;;;;;;;10.60;4.50;;;;;;;19.01;49.28;102015.75;5029427;28;20227;-60
2022/01/22 01:03:47;;;;;;;9.63;3.53;;;;;;;19.24;48.62;102014.34;5037386;28;20213;-60
2022/01/22 01:06:12;;;;;;;14.43;4.43;;;;;;;19.34;48.73;102013.09;5043824;28;20451;-60
2022/01/22 01:08:37;;;;;;;13.50;4.17;;;;;;;19.33;48.77;102005.72;5038028;28;20191;-60
2022/01/22 01:11:04;;;;;;;12.27;3.90;;;;;;;19.14;49.49;102008.97;5048466;28;20195;-59
2022/01/22 01:13:33;;;;;;;9.20;4.27;;;;;;;19.31;49.18;102008.91;5047379;28;20176;-60
2022/01/22 01:16:13;;;;;;;10.90;3.93;;;;;;;19.29;49.01;102005.56;5047295;28;20422;-60
2022/01/22 01:32:22;;;;;;;10.80;3.87;;;;;;;18.77;49.79;101998.31;5034723;28;20464;-60
2022/01/22 01:34:49;;;;;;;7.07;4.13;;;;;;;18.80;49.21;101996.81;5037398;28;20414;-60
2022/01/22 01:37:17;;;;;;;16.23;4.40;;;;;;;18.74;49.70;102010.47;5045265;28;20804;-60
2022/01/22 01:39:44;;;;;;;10.90;4.37;;;;;;;18.74;49.88;102007.59;5046578;28;20422;-60
2022/01/22 01:42:29;;;;;;;9.60;3.80;;;;;;;18.71;50.28;102008.28;5046178;28;20442;-60
2022/01/22 01:44:56;;;;;;;8.07;4.17;;;;;;;18.72;50.30;102012.00;5042185;28;20414;-59
2022/01/22 01:47:22;;;;;;;7.60;3.97;;;;;;;18.73;49.90;102014.53;5038203;28;20996;-60
2022/01/22 01:49:47;;;;;;;9.70;4.50;;;;;;;18.70;50.15;102009.47;5025607;28;20415;-60
2022/01/22 01:52:19;;;;;;;8.07;3.20;;;;;;;18.72;50.31;102012.81;5027520;28;20184;-60
2022/01/22 01:55:00;;;;;;;8.70;4.57;;;;;;;18.75;49.74;102017.88;5047188;28;20168;-60
2022/01/22 01:57:38;;;;;;;10.30;3.90;;;;;;;18.72;50.06;102015.69;5047716;28;21023;-60
2022/01/22 02:00:07;;;;;;;8.80;4.67;;;;;;;18.72;50.39;102012.00;5047281;28;20426;-59
2022/01/22 02:02:34;;;;;;;8.40;3.93;;;;;;;18.70;49.81;102006.59;5047707;28;20804;-59
2022/01/22 02:05:00;;;;;;;6.70;3.77;;;;;;;18.65;49.96;102003.94;5037655;28;20476;-60
2022/01/22 02:07:25;;;;;;;10.37;4.03;;;;;;;18.71;49.79;102011.13;5029730;28;20443;-60
2022/01/22 02:09:51;;;;;;;9.90;4.10;;;;;;;18.70;49.78;102002.88;5027746;28;20176;-60
2022/01/22 02:12:44;;;;;;;10.07;4.37;;;;;;;18.71;50.42;102005.41;5026840;28;20207;-60
2022/01/22 02:25:58;;;;;;;8.80;4.20;;;;;;;18.65;50.29;101989.63;5048135;28;20776;-60
2022/01/22 02:28:24;;;;;;;8.63;3.27;;;;;;;18.66;50.06;101977.00;5047734;28;20407;-59
2022/01/22 02:30:55;;;;;;;7.77;3.53;;;;;;;18.67;49.72;101978.66;5046397;28;20651;-60
2022/01/22 02:33:33;;;;;;;6.83;4.60;;;;;;;18.62;50.38;101980.88;5041527;28;20204;-60
2022/01/22 02:36:13;;;;;;;9.23;4.50;;;;;;;18.64;50.03;101982.22;5046121;28;20431;-60
2022/01/22 02:38:50;;;;;;;7.33;2.93;;;;;;;18.63;50.38;101989.13;5049164;28;20394;-60
2022/01/22 02:41:19;;;;;;;6.17;3.60;;;;;;;18.64;49.82;101985.09;5051318;28;20924;-60
2022/01/22 02:43:46;;;;;;;9.63;3.90;;;;;;;18.63;50.10;101983.41;5051071;28;20516;-60
2022/01/22 02:46:14;;;;;;;11.17;3.70;;;;;;;18.63;50.28;101983.41;5030478;28;21002;-60
2022/01/22 02:48:40;;;;;;;7.37;3.20;;;;;;;18.64;49.90;101984.25;5045263;28;20511;-60
2022/01/22 02:51:05;;;;;;;5.37;3.20;;;;;;;18.61;50.28;101987.78;5051135;28;20913;-59
2022/01/22 02:53:31;;;;;;;9.53;3.00;;;;;;;18.61;50.56;101987.78;5051276;28;20179;-60
2022/01/22 02:55:57;;;;;;;9.83;3.90;;;;;;;18.63;50.37;101983.41;5050975;28;20222;-60
2022/01/22 02:58:23;;;;;;;7.93;3.30;;;;;;;18.60;50.17;101977.50;5050014;28;20509;-59
2022/01/22 03:00:48;;;;;;;6.37;3.33;;;;;;;18.61;50.30;101982.91;5050134;28;20469;-60
2022/01/22 03:03:14;;;;;;;5.70;3.10;;;;;;;18.59;50.49;101984.41;5046807;28;20200;-59
2022/01/22 03:05:40;;;;;;;14.37;3.50;;;;;;;18.67;49.96;101980.72;5046904;28;20202;-60
2022/01/22 03:08:08;;;;;;;5.33;3.30;;;;;;;18.60;50.26;101998.38;5049285;28;20183;-60
2022/01/22 03:10:34;;;;;;;9.40;3.30;;;;;;;18.61;50.33;101990.66;5050785;28;20184;-60
2022/01/22 03:17:57;;;;;;;5.50;3.00;;;;;;;18.62;50.17;101995.19;5050511;28;20183;-61
2022/01/22 03:28:41;;;;;;;5.10;3.10;;;;;;;18.59;49.95;101987.28;5050633;28;20879;-60
2022/01/22 03:31:06;;;;;;;12.13;3.53;;;;;;;18.58;50.24;101986.47;5050200;28;20398;-60
2022/01/22 03:33:32;;;;;;;8.90;3.57;;;;;;;18.56;50.54;101983.09;5044655;28;20449;-60
2022/01/22 03:35:59;;;;;;;8.63;3.23;;;;;;;18.53;50.60;101980.91;5050149;28;20580;-60
2022/01/22 03:38:25;;;;;;;10.03;3.70;;;;;;;18.57;50.37;101981.88;5050445;28;20630;-60
2022/01/22 03:40:50;;;;;;;8.63;3.30;;;;;;;18.55;50.47;101984.25;5049314;28;20418;-60
2022/01/22 03:43:17;;;;;;;12.37;3.57;;;;;;;18.54;50.65;101984.59;5049554;28;20290;-60
2022/01/22 03:45:43;;;;;;;8.00;3.10;;;;;;;18.55;50.64;101980.56;5047055;28;20180;-60
2022/01/22 03:48:08;;;;;;;6.80;2.80;;;;;;;18.54;50.61;101979.72;5050794;28;20486;-60
2022/01/22 03:50:33;;;;;;;6.80;3.90;;;;;;;18.55;50.42;101987.13;5048758;28;20241;-60
2022/01/22 03:52:59;;;;;;;5.10;3.00;;;;;;;18.56;50.29;101982.25;5040156;28;20222;-60
2022/01/22 03:58:09;;;;;;;5.43;2.90;;;;;;;18.52;50.50;101993.50;5050566;28;20183;-59
2022/01/22 04:00:34;;;;;;;5.90;3.27;;;;;;;18.56;51.08;101991.66;5049311;28;20462;-60
2022/01/22 04:05:29;;;;;;;5.37;2.87;;;;;;;18.51;50.86;101982.44;5042122;28;20180;-60
2022/01/22 04:08:37;;;;;;;8.10;3.30;;;;;;;18.51;50.48;101980.41;5030741;28;20449;-60
2022/01/22 04:10:43;;;;;;;5.50;3.17;;;;;;;18.52;50.58;101972.66;5031057;28;20435;-60
2022/01/22 04:13:13;;;;;;;6.40;2.50;;;;;;;18.48;50.60;101975.38;5038020;28;20782;-60
2022/01/22 04:15:40;;;;;;;5.70;2.77;;;;;;;18.51;50.56;101973.84;5048791;28;20202;-60
2022/01/22 04:29:08;;;;;;;4.53;2.40;;;;;;;18.53;50.25;101965.75;5043563;28;21045;-60
2022/01/22 04:31:34;;;;;;;5.53;3.13;;;;;;;18.48;50.77;101961.09;5029761;28;20418;-60
2022/01/22 04:33:59;;;;;;;5.23;2.60;;;;;;;18.52;50.38;101966.94;5041007;28;20185;-60
2022/01/22 04:36:24;;;;;;;6.27;3.00;;;;;;;18.48;50.81;101969.66;5048623;28;20191;-60
2022/01/22 04:38:50;;;;;;;4.83;2.47;;;;;;;18.49;51.22;101973.34;5049265;28;20191;-60
2022/01/22 04:41:15;;;;;;;4.40;2.10;;;;;;;18.50;50.64;101967.28;5049551;28;20191;-60
2022/01/22 04:43:43;;;;;;;5.00;2.57;;;;;;;18.50;50.89;101970.16;5049521;28;20294;-60
2022/01/22 04:49:06;;;;;;;5.03;2.90;;;;;;;18.52;50.42;101961.22;5049187;28;20411;-60
2022/01/22 04:56:59;;;;;;;4.77;2.83;;;;;;;18.50;50.91;101960.72;5049615;28;20547;-60
2022/01/22 04:59:25;;;;;;;5.67;2.37;;;;;;;18.51;50.58;101960.38;5048079;28;20464;-60
2022/01/22 05:01:50;;;;;;;3.70;2.50;;;;;;;18.46;50.62;101954.84;5047864;28;20313;-60
2022/01/22 05:04:15;;;;;;;5.43;2.70;;;;;;;18.53;50.19;101963.75;5040445;28;20655;-60
2022/01/22 05:06:41;;;;;;;5.80;3.10;;;;;;;18.47;50.84;101967.94;5048971;28;20226;-60
2022/01/22 05:09:06;;;;;;;7.47;2.50;;;;;;;18.51;50.56;101968.13;5047888;28;20659;-61
2022/01/22 05:11:32;;;;;;;5.00;2.60;;;;;;;18.51;50.36;101966.09;5048323;28;20283;-60
2022/01/22 05:13:57;;;;;;;7.13;2.80;;;;;;;18.50;50.37;101967.28;5048502;28;20655;-60
2022/01/22 05:16:23;;;;;;;4.07;2.67;;;;;;;18.54;50.82;101976.03;5047478;28;20184;-60
2022/01/22 05:19:04;;;;;;;5.63;2.80;;;;;;;18.48;50.71;101972.53;5048411;28;20175;-60
2022/01/22 05:21:32;;;;;;;4.83;2.53;;;;;;;18.49;50.88;101967.63;5048457;28;20435;-60
2022/01/22 05:24:01;;;;;;;4.70;2.50;;;;;;;18.51;50.63;101971.00;5041489;28;20435;-60
2022/01/22 05:26:53;;;;;;;5.10;2.83;;;;;;;18.49;50.57;101967.63;5048366;28;20421;-60
2022/01/22 05:32:25;;;;;;;4.67;2.33;;;;;;;18.52;50.32;101982.06;5032465;28;20393;-59
2022/01/22 05:37:34;;;;;;;3.83;2.70;;;;;;;18.49;50.31;101988.50;5047938;28;20401;-59
2022/01/22 05:40:00;;;;;;;4.83;2.53;;;;;;;18.50;50.99;102001.59;5048035;28;20902;-59
2022/01/22 05:42:25;;;;;;;4.03;2.27;;;;;;;18.52;50.57;101995.56;5046242;28;20203;-59
2022/01/22 05:44:51;;;;;;;4.07;2.13;;;;;;;18.54;50.48;101993.19;5044534;28;20194;-60
2022/01/22 05:47:20;;;;;;;4.00;2.40;;;;;;;18.56;50.12;101994.53;5046603;28;20199;-60
2022/01/22 05:49:45;;;;;;;5.57;2.53;;;;;;;18.51;50.25;101988.97;5048037;28;20182;-60
2022/01/22 05:52:13;;;;;;;4.70;2.43;;;;;;;18.52;50.49;102002.09;5048414;28;20798;-60
2022/01/22 06:00:00;;;;;;;4.10;2.23;;;;;;;18.53;51.15;102020.09;5046896;28;20568;-60
2022/01/22 06:02:25;;;;;;;5.50;2.50;;;;;;;18.52;50.65;102030.69;5046475;28;20985;-60
2022/01/22 06:04:51;;;;;;;4.43;2.53;;;;;;;18.53;50.40;102018.09;5039463;28;20560;-60
2022/01/22 06:07:16;;;;;;;4.93;2.33;;;;;;;18.49;50.64;102019.94;5046309;28;20667;-59
2022/01/22 06:10:04;;;;;;;8.30;3.03;;;;;;;18.53;50.84;102022.97;5048235;28;20531;-59
2022/01/22 06:14:55;;;;;;;6.77;3.17;;;;;;;18.53;50.36;102026.69;5040494;28;20420;-60
2022/01/22 06:17:21;;;;;;;3.70;2.23;;;;;;;18.56;50.40;102025.16;5029942;28;20238;-60
2022/01/22 06:19:46;;;;;;;4.53;2.00;;;;;;;18.54;50.10;102021.78;5047322;28;20187;-60
2022/01/22 06:22:11;;;;;;;3.67;2.30;;;;;;;18.58;50.19;102023.66;5046774;28;20196;-59
2022/01/22 06:24:37;;;;;;;5.20;2.20;;;;;;;18.52;50.40;102024.16;5047194;28;20179;-59
2022/01/22 06:27:02;;;;;;;8.13;3.20;;;;;;;18.55;50.38;102021.44;5047509;28;20175;-60
2022/01/22 06:29:28;;;;;;;7.03;2.57;;;;;;;18.58;50.71;102023.66;5047404;28;20194;-59
2022/01/22 06:31:53;;;;;;;4.70;2.90;;;;;;;18.52;50.35;102018.44;5047669;28;20624;-59
2022/01/22 06:34:19;;;;;;;4.00;2.13;;;;;;;18.57;50.37;102021.94;5039003;28;20183;-59
2022/01/22 06:36:44;;;;;;;5.13;2.50;;;;;;;18.51;50.68;102029.03;5047747;28;20172;-60
2022/01/22 06:39:18;;;;;;;5.43;2.47;;;;;;;18.51;50.67;102025.34;5047346;28;20765;-60
2022/01/22 06:41:44;;;;;;;5.20;2.30;;;;;;;18.54;50.72;102022.63;5047310;28;20619;-59
2022/01/22 06:44:14;;;;;;;4.53;2.50;;;;;;;18.53;50.61;102020.97;5048038;28;20452;-60
2022/01/22 06:46:40;;;;;;;3.90;2.30;;;;;;;18.54;50.21;102036.94;5048034;28;20178;-59
2022/01/22 06:49:05;;;;;;;5.27;2.30;;;;;;;18.54;50.33;102033.22;5046159;28;20914;-59
2022/01/22 06:51:32;;;;;;;6.03;3.20;;;;;;;18.52;50.57;102036.41;5046258;28;20426;-59
2022/01/22 06:53:58;;;;;;;4.93;2.43;;;;;;;18.50;50.88;102027.34;5047477;28;20211;-59
2022/01/22 06:56:25;;;;;;;4.00;2.37;;;;;;;18.51;50.48;102029.03;5047460;28;20448;-60
2022/01/22 06:58:50;;;;;;;3.87;2.20;;;;;;;18.54;50.54;102028.34;5047180;28;20212;-59
2022/01/22 07:01:15;;;;;;;3.83;2.30;;;;;;;18.53;50.71;102034.41;5046885;28;20470;-60
2022/01/22 07:03:41;;;;;;;3.93;1.90;;;;;;;18.53;50.63;102025.81;5039289;28;20225;-60
2022/01/22 07:06:10;;;;;;;4.80;2.20;;;;;;;18.53;50.41;102032.41;5047193;28;20212;-59
2022/01/22 07:08:35;;;;;;;3.70;2.00;;;;;;;18.51;50.62;102043.31;5047329;28;20222;-61
2022/01/22 07:11:04;;;;;;;3.43;1.73;;;;;;;18.55;50.31;102041.47;5046581;28;20922;-60
2022/01/22 07:13:29;;;;;;;4.63;2.40;;;;;;;18.51;50.58;102045.34;5044952;28;20666;-58
2022/01/22 07:15:54;;;;;;;6.70;2.60;;;;;;;18.57;50.20;102056.25;5046529;28;20426;-59
2022/01/22 07:18:20;;;;;;;3.00;2.00;;;;;;;18.54;50.36;102054.09;5045924;28;20194;-59
2022/01/22 07:20:45;;;;;;;3.77;2.30;;;;;;;18.52;50.26;102053.56;5047209;28;20176;-59
2022/01/22 07:25:55;;;;;;;4.03;2.10;;;;;;;18.55;50.26;102064.34;5048453;28;20214;-59
2022/01/22 07:28:20;;;;;;;3.20;1.77;;;;;;;18.60;50.00;102069.91;5050665;28;20414;-59
2022/01/22 07:30:48;;;;;;;4.60;2.57;;;;;;;18.53;50.64;102066.72;5050366;28;20198;-59
2022/01/22 07:33:13;;;;;;;3.67;1.90;;;;;;;18.53;50.98;102069.59;5044378;28;20267;-60
2022/01/22 07:35:39;;;;;;;3.43;2.10;;;;;;;18.55;50.73;102063.50;5046611;28;20426;-59
2022/01/22 07:38:04;;;;;;;3.73;2.10;;;;;;;18.53;50.36;102071.59;5047288;28;20179;-60
2022/01/22 07:40:30;;;;;;;4.30;2.10;;;;;;;18.52;50.36;102075.63;5047480;28;20206;-59
2022/01/22 07:42:55;;;;;;;3.63;2.03;;;;;;;18.52;50.39;102081.34;5050489;28;20245;-59
2022/01/22 07:45:21;;;;;;;4.07;2.20;;;;;;;18.53;50.59;102083.88;5042358;28;20180;-59
2022/01/22 07:47:46;;;;;;;4.10;2.13;;;;;;;18.60;49.87;102084.19;5030176;28;20180;-59
2022/01/22 07:50:12;;;;;;;4.33;2.30;;;;;;;18.53;50.79;102080.16;5029293;28;20177;-59
2022/01/22 07:52:37;;;;;;;3.90;2.37;;;;;;;18.52;50.08;102084.22;5034022;28;20172;-59
2022/01/22 07:55:04;;;;;;;4.70;2.40;;;;;;;18.56;50.07;102083.19;5050043;28;20226;-59
2022/01/22 07:57:29;;;;;;;3.70;2.47;;;;;;;18.53;50.33;102083.88;5050688;28;20236;-59
2022/01/22 07:59:55;;;;;;;3.33;1.90;;;;;;;18.55;50.35;102074.94;5049835;28;20426;-59
2022/01/22 08:02:20;;;;;;;5.23;1.70;;;;;;;18.59;50.22;102082.53;5049769;28;20282;-60
2022/01/22 08:04:45;;;;;;;4.97;2.30;;;;;;;18.58;50.23;102075.13;5041826;28;20229;-60
2022/01/22 08:07:11;;;;;;;5.13;1.97;;;;;;;18.59;50.04;102079.66;5050780;28;20214;-60
2022/01/22 08:09:36;;;;;;;2.67;1.60;;;;;;;18.56;50.22;102068.06;5049395;28;20180;-60
2022/01/22 08:12:02;;;;;;;3.40;2.00;;;;;;;18.55;50.57;102075.78;5050194;28;20179;-60
2022/01/22 08:14:28;;;;;;;4.40;2.20;;;;;;;18.55;50.23;102077.81;5049423;28;20230;-60
2022/01/22 08:16:53;;;;;;;3.40;1.83;;;;;;;18.54;50.29;102082.69;5049887;28;20176;-59
2022/01/22 08:19:19;;;;;;;3.90;2.03;;;;;;;18.54;50.82;102090.44;5049110;28;20187;-60
2022/01/22 08:21:45;;;;;;;3.60;2.17;;;;;;;18.54;50.12;102085.56;5049842;28;20183;-59
2022/01/22 08:24:11;;;;;;;3.57;2.27;;;;;;;18.54;50.82;102076.97;5038044;28;20544;-59
2022/01/22 08:26:42;;;;;;;3.40;1.83;;;;;;;18.56;50.31;102083.19;5050450;28;20422;-60
2022/01/22 08:29:08;;;;;;;4.80;2.07;;;;;;;18.55;50.22;102072.94;5049427;28;20410;-59
2022/01/22 08:36:43;;;;;;;3.30;1.93;;;;;;;18.54;50.19;102091.28;5048408;28;20199;-60
2022/01/22 08:39:09;;;;;;;4.33;2.33;;;;;;;18.54;50.44;102085.56;5049250;28;20465;-60
2022/01/22 08:41:35;;;;;;;2.97;1.93;;;;;;;18.55;50.48;102087.25;5048993;28;20722;-59
2022/01/22 08:44:00;;;;;;;5.27;1.80;;;;;;;18.58;49.71;102089.44;5049202;28;20184;-59
2022/01/22 08:46:26;;;;;;;4.73;1.90;;;;;;;18.55;50.31;102090.09;5048141;28;20632;-59
2022/01/22 08:48:52;;;;;;;4.40;2.20;;;;;;;18.55;50.38;102086.38;5048372;28;20184;-58
2022/01/22 08:51:17;;;;;;;3.47;1.97;;;;;;;18.54;50.54;102099.88;5049334;28;20914;-59
2022/01/22 08:53:43;;;;;;;3.07;2.13;;;;;;;18.60;49.95;102111.97;5048897;28;20176;-61
2022/01/22 08:56:09;;;;;;;4.70;2.10;;;;;;;18.55;50.33;102120.72;5049087;28;20176;-60
2022/01/22 08:58:35;;;;;;;4.13;2.47;;;;;;;18.56;50.63;102103.22;5049411;28;20175;-60
2022/01/22 09:01:00;;;;;;;3.40;1.63;;;;;;;18.61;50.16;102103.03;5048251;28;20497;-59
2022/01/22 09:03:26;;;;;;;4.03;2.20;;;;;;;18.59;50.00;102104.56;5043385;28;20490;-60
2022/01/22 09:05:52;;;;;;;3.57;1.90;;;;;;;18.56;50.43;102111.78;5046698;28;20196;-59
2022/01/22 09:08:18;;;;;;;3.40;1.70;;;;;;;18.55;50.57;102115.00;5048860;28;20160;-60
2022/01/22 09:10:43;;;;;;;3.37;2.13;;;;;;;18.61;50.33;102125.94;5048131;28;20441;-58
2022/01/22 09:13:10;;;;;;;3.07;2.10;;;;;;;18.58;50.26;102120.91;5047500;28;20183;-61
2022/01/22 09:15:35;;;;;;;3.10;1.70;;;;;;;18.56;50.35;102119.56;5048169;28;20180;-61
2022/01/22 09:18:01;;;;;;;2.70;1.53;;;;;;;18.57;50.16;102122.06;5047855;28;20467;-58
2022/01/22 09:23:05;;;;;;;3.17;2.00;;;;;;;18.58;50.05;102109.47;5041989;28;20574;-59
2022/01/22 09:25:30;;;;;;;3.43;1.90;;;;;;;18.54;50.44;102114.16;5035676;28;20549;-59
2022/01/22 09:27:56;;;;;;;4.53;2.63;;;;;;;18.55;50.33;102118.69;5043795;28;20434;-58
2022/01/22 09:30:21;;;;;;;3.13;1.77;;;;;;;18.61;50.03;102125.94;5039270;28;20196;-59
2022/01/22 09:32:47;;;;;;;3.43;1.97;;;;;;;18.56;50.43;102116.69;5047497;28;20180;-59
2022/01/22 09:35:12;;;;;;;3.40;1.90;;;;;;;18.59;50.06;102107.41;5038118;28;20204;-59
2022/01/22 09:37:38;;;;;;;2.47;1.60;;;;;;;18.60;50.20;102118.53;5038885;28;20668;-58
2022/01/22 09:40:04;;;;;;;4.03;1.90;;;;;;;18.60;49.89;102115.66;5028259;28;20524;-59
2022/01/22 09:42:29;;;;;;;4.10;2.17;;;;;;;18.60;50.43;102124.25;5034543;28;20246;-58
2022/01/22 09:44:55;;;;;;;3.03;2.33;;;;;;;18.61;49.96;102114.47;5045939;28;20937;-59
2022/01/22 09:47:21;;;;;;;2.93;1.80;;;;;;;18.58;50.84;102126.63;5028323;28;20554;-59
2022/01/22 09:49:46;;;;;;;3.60;2.20;;;;;;;18.57;50.52;102132.66;5036062;28;20188;-59
2022/01/22 09:52:12;;;;;;;3.70;1.80;;;;;;;18.58;50.02;102132.34;5028383;28;20173;-59
2022/01/22 09:54:38;;;;;;;3.73;2.17;;;;;;;18.61;50.26;102128.78;5043551;28;20202;-59
2022/01/22 09:57:04;;;;;;;2.90;1.90;;;;;;;18.61;49.99;102128.78;5030507;28;20785;-59
2022/01/22 09:59:30;;;;;;;4.27;2.17;;;;;;;18.62;50.19;102127.59;5029122;28;20711;-59
2022/01/22 10:02:12;;;;;;;3.53;2.10;;;;;;;18.61;50.59;102133.69;5039109;28;21236;-59
2022/01/22 10:04:42;;;;;;;4.20;2.33;;;;;;;18.65;49.66;102128.94;5035312;28;20442;-59
2022/01/22 10:07:23;;;;;;;3.23;1.80;;;;;;;18.60;50.22;102129.97;5040178;28;20879;-60
2022/01/22 10:09:58;;;;;;;5.30;2.13;;;;;;;18.61;50.10;102130.81;5036011;28;20516;-59
2022/01/22 10:12:26;;;;;;;3.37;1.90;;;;;;;18.63;50.14;102134.19;5039106;28;20437;-59
2022/01/22 10:15:04;;;;;;;3.13;1.87;;;;;;;18.59;50.29;102127.44;5042970;28;20898;-59
2022/01/22 10:17:41;;;;;;;4.23;2.20;;;;;;;18.63;50.50;102137.03;5047827;28;20917;-59
2022/01/22 10:20:45;;;;;;;3.50;2.20;;;;;;;18.63;50.44;102139.91;5043682;28;20433;-59
2022/01/22 10:23:22;;;;;;;5.40;2.23;;;;;;;18.60;49.93;102138.56;5035157;28;20469;-59
2022/01/22 10:25:52;;;;;;;3.60;2.20;;;;;;;18.60;50.62;102127.09;5047011;28;20418;-59
2022/01/22 10:28:21;;;;;;;3.80;2.27;;;;;;;18.57;50.41;102130.63;5047814;28;20775;-59
2022/01/22 10:30:54;;;;;;;3.90;2.50;;;;;;;18.65;49.86;102131.81;5047677;28;20899;-59
2022/01/22 10:33:29;;;;;;;4.40;1.97;;;;;;;18.61;50.03;102130.81;5041731;28;20423;-59
2022/01/22 10:36:08;;;;;;;2.97;1.67;;;;;;;18.61;50.23;102134.50;5045477;28;20452;-59
2022/01/22 10:38:52;;;;;;;3.23;2.03;;;;;;;18.62;50.19;102139.03;5046800;28;20509;-59
2022/01/22 10:41:33;;;;;;;3.17;1.80;;;;;;;18.61;50.06;102131.66;5041166;28;20441;-59
2022/01/22 10:43:59;;;;;;;4.50;2.20;;;;;;;18.61;50.36;102131.66;5038097;28;20469;-59
2022/01/22 10:46:33;;;;;;;4.53;2.07;;;;;;;18.57;50.11;102130.63;5039170;28;20446;-59
2022/01/22 10:49:25;;;;;;;4.10;2.17;;;;;;;18.59;50.45;102127.44;5036202;28;20422;-59
2022/01/22 10:51:59;;;;;;;7.60;5.47;;;;;;;18.06;47.60;102135.47;5046371;28;20483;-60
2022/01/22 10:54:26;;;;;;;13.33;5.93;;;;;;;17.72;46.69;102126.78;5032953;28;20452;-60
2022/01/22 10:56:52;;;;;;;10.03;6.83;;;;;;;17.87;45.10;102127.19;5026964;28;20451;-59
2022/01/22 10:59:19;;;;;;;17.63;7.20;;;;;;;18.17;44.81;102122.53;5038091;28;20445;-59
2022/01/22 11:01:59;;;;;;;10.13;6.50;;;;;;;18.33;45.37;102118.88;5038098;28;20244;-60
2022/01/22 11:04:43;;;;;;;19.20;6.80;;;;;;;18.49;45.23;102122.91;5041333;28;20978;-60
2022/01/22 11:07:16;;;;;;;14.20;6.13;;;;;;;18.78;43.99;102113.63;5043338;28;20462;-60
2022/01/22 11:09:42;;;;;;;15.57;6.73;;;;;;;18.83;43.98;102116.31;5025742;28;20530;-61
2022/01/22 11:12:08;;;;;;;13.47;6.83;;;;;;;19.00;44.77;102111.41;5036221;28;20435;-60
2022/01/22 11:14:35;;;;;;;12.80;6.40;;;;;;;18.94;44.44;102111.91;5040245;28;20265;-60
2022/01/22 11:17:00;;;;;;;16.47;6.57;;;;;;;18.89;44.39;102109.22;5049732;28;20829;-59
2022/01/22 11:19:30;;;;;;;9.53;5.73;;;;;;;18.91;44.32;102118.34;5047128;28;20426;-60
2022/01/22 11:21:56;;;;;;;14.20;6.23;;;;;;;18.83;45.14;102110.59;5040293;28;20637;-60
2022/01/22 11:24:23;;;;;;;10.83;6.53;;;;;;;18.80;44.61;102099.81;5040266;28;20457;-60
2022/01/22 11:26:57;;;;;;;13.83;6.00;;;;;;;18.73;44.66;102100.34;5034128;28;20180;-59
2022/01/22 11:29:29;;;;;;;11.97;5.73;;;;;;;18.84;45.13;102097.97;5032689;28;20439;-59
2022/01/22 11:31:54;;;;;;;10.80;5.73;;;;;;;18.82;45.42;102106.06;5037747;28;20449;-59
2022/01/22 11:34:23;;;;;;;9.87;5.10;;;;;;;18.80;46.10;102102.69;5039129;28;20776;-60
2022/01/22 11:37:12;;;;;;;13.33;5.10;;;;;;;18.75;45.79;102102.84;5040467;28;20223;-59
2022/01/22 11:39:37;;;;;;;8.93;4.70;;;;;;;18.67;45.58;102106.59;5032896;28;20469;-58
2022/01/22 11:42:04;;;;;;;11.63;5.20;;;;;;;18.70;45.79;102101.03;5040491;28;20564;-60
2022/01/22 11:44:48;;;;;;;9.10;5.70;;;;;;;18.75;45.96;102103.69;5047688;28;20198;-60
2022/01/22 11:47:17;;;;;;;11.40;5.57;;;;;;;18.84;45.95;102089.38;5037093;28;20423;-60
2022/01/22 11:50:13;;;;;;;10.40;5.50;;;;;;;18.92;46.22;102094.25;5048518;28;20949;-59
2022/01/22 11:52:40;;;;;;;12.53;4.97;;;;;;;19.21;46.75;102106.63;5050218;28;20437;-60
2022/01/22 11:55:10;;;;;;;14.10;5.30;;;;;;;19.48;47.40;102093.91;5048281;28;20434;-59
2022/01/22 11:57:35;;;;;;;9.87;5.00;;;;;;;19.29;48.05;102097.19;5031507;28;20492;-59
2022/01/22 12:00:25;;;;;;;9.67;4.70;;;;;;;19.34;48.35;102096.16;5030760;28;20423;-58
2022/01/22 12:03:03;;;;;;;14.90;4.83;;;;;;;19.25;49.27;102095.34;5035153;28;20196;-59
2022/01/22 12:05:29;;;;;;;7.60;4.63;;;;;;;19.23;49.08;102101.44;5043790;28;20796;-58
2022/01/22 12:07:58;;;;;;;11.20;5.10;;;;;;;19.26;49.63;102109.31;5030788;28;20434;-59
2022/01/22 12:10:39;;;;;;;12.80;5.93;;;;;;;19.44;49.63;102098.66;5039636;28;20427;-59
2022/01/22 12:16:07;;;;;;;11.37;4.70;;;;;;;19.31;49.96;102091.13;5038040;28;20576;-59
2022/01/22 12:18:34;;;;;;;8.73;4.40;;;;;;;19.37;50.14;102090.59;5042908;28;20426;-59
2022/01/22 12:23:31;;;;;;;8.50;3.90;;;;;;;19.00;50.56;102088.50;5040495;28;20482;-60
2022/01/22 12:25:58;;;;;;;8.43;4.93;;;;;;;19.00;50.27;102087.66;5048818;28;20397;-59
2022/01/22 12:28:44;;;;;;;8.07;4.43;;;;;;;19.11;50.17;102094.72;5042216;28;20434;-59
2022/01/22 12:31:10;;;;;;;10.10;4.87;;;;;;;19.03;49.22;102087.84;5029773;28;20461;-59
2022/01/22 12:33:38;;;;;;;17.20;4.70;;;;;;;18.99;49.64;102086.81;5039966;28;20423;-59
2022/01/22 12:36:19;;;;;;;7.83;4.13;;;;;;;18.88;49.12;102091.25;5035468;28;20445;-59
2022/01/22 12:41:29;;;;;;;12.10;4.10;;;;;;;19.11;49.58;102080.41;5038141;28;20430;-60
2022/01/22 12:44:08;;;;;;;11.00;4.30;;;;;;;19.22;49.86;102079.69;5049309;28;20446;-60
2022/01/22 12:46:34;;;;;;;7.30;3.97;;;;;;;19.26;49.85;102086.41;5041137;28;20481;-58
2022/01/22 12:49:01;;;;;;;8.77;4.20;;;;;;;19.30;50.31;102081.69;5041398;28;20430;-60
2022/01/22 12:51:27;;;;;;;7.30;4.20;;;;;;;18.97;49.80;102077.72;5030788;28;20440;-59
2022/01/22 12:53:52;;;;;;;14.70;6.07;;;;;;;18.87;47.88;102071.53;5034567;28;20431;-59
2022/01/22 12:59:07;;;;;;;14.67;7.00;;;;;;;19.00;47.59;102073.34;5036070;28;20189;-59
2022/01/22 13:01:34;;;;;;;7.90;5.83;;;;;;;19.11;47.73;102078.34;5033032;28;21044;-58
2022/01/22 13:04:02;;;;;;;16.13;6.10;;;;;;;19.06;48.47;102072.81;5039757;28;20554;-59
2022/01/22 13:06:48;;;;;;;15.83;7.20;;;;;;;19.06;47.95;102069.13;5049034;28;20447;-59
2022/01/22 13:09:14;;;;;;;14.93;7.80;;;;;;;18.95;46.58;102067.78;5038905;28;20526;-59